Airfield :
LOGIN :

Register | Disclaimer

   EN    FR    IT 

 










Legend :    VFR   Marginal VFR   IFR   Intensive IFR   Very Intensive IFR
Visi :
Ceiling :
>= 8 km
>= 3000ft
5 to 8 km
1000 to 3000 ft
1500m to 5 km
500 to 1000 ft
800 to 1500m
200 to 500 ft
< 800m
< 200 ft
Symbols :   Thunderstorms  Fog  Heavy snow  Heavy precipitations  Wind > 20 kt
SIGMETs :     Misc.  Thunderstorms  Icing  Turbulence  Mountain Waves  Volcanic Ashes






- Airport Elevation : 82 ft
- IATA code : AAR


EKAH - Aarhus Tirstrup

CURRENT METAR :
  • 290420Z AUTO 03007KT 360V060 9999 OVC010/// 02/01 Q1029

EXPIRED METARs :
  • 290350Z AUTO 03005KT 9999 OVC011/// 03/01 Q1029
  • 290320Z AUTO 01005KT 330V040 9999 OVC011/// 03/01 Q1029
  • 290250Z AUTO 02004KT 340V050 9999 OVC012/// 03/01 Q1030
  • 290220Z AUTO 02003KT 9999 OVC013/// 03/01 Q1030
  • 290150Z AUTO 03005KT 9999 OVC014/// 03/01 Q1030

TAF TAF EKAH
Valid from the 29 at 00:00 until the 30 at 00:00 UTC


282312Z 2900/2924 06005KT 9999 BKN018
TEMPO 2900/2924 BKN012



MET'MAP, your aeronautical weather chart ! - Copyright ORBIFLY December 2007 - Disclaimer

ORBIFLY MET'MAP TEAM :

Programming & Development : Alexandra Zaïnal
Concept & original design : Baudouin d'Aumeries
Assistance for programming : Marc-Olivier Méhu
Technical & hardware support : Manuel Goepfert

Contact : metmap@orbifly.com




SOURCES & CREDITS :

   NOAA